Iasi, Romania
Current Conditions -  °F | °C
As of 8:00 PM on Monday 26 Jan 2015 (Local Time) from LRIA Reporting Station
Scattered Clouds Scattered Clouds  
Wind Chill: 34°   Ceiling: Unl
Heat Index: 34°   Visibility: 6mi
Dew Point: 32°   Wind: 2mph
Humidity: 93%   Direction: 300°WNW
Pressure: 30.18"   Gusts: NA
Location:  47.17°N, 27.57°E
Report Text: LRIA 261700Z 30002KT 9999 SCT017 01/00 Q1022 R14/19//95
Loading
Personal Weather Stations






























Interactive Weather Map New forecast layout! Learn more

10-Day Weather Forecast

Advertisements
Track Severe Weather on mobile